createdAt,value
2023-01-20T00:01:09.820Z,21.47
2023-01-20T00:03:38.060Z,21.77
2023-01-20T00:06:06.052Z,20.63
2023-01-20T00:08:34.031Z,21.07
2023-01-20T00:11:05.373Z,19.30
2023-01-20T00:13:34.558Z,20.13
2023-01-20T00:16:03.832Z,23.47
2023-01-20T00:18:31.940Z,21.67
2023-01-20T00:21:03.472Z,20.70
2023-01-20T00:23:31.344Z,22.53
2023-01-20T00:25:59.264Z,24.03
2023-01-20T00:28:27.275Z,22.77
2023-01-20T00:30:56.614Z,22.53
2023-01-20T00:33:24.477Z,19.90
2023-01-20T00:35:52.223Z,22.53
2023-01-20T00:38:20.962Z,22.53
2023-01-20T00:40:54.871Z,20.57
2023-01-20T00:43:22.712Z,21.87
2023-01-20T00:45:50.445Z,17.27
2023-01-20T00:48:19.533Z,20.63
2023-01-20T00:50:47.308Z,20.20
2023-01-20T00:53:15.616Z,20.23
2023-01-20T00:55:43.357Z,19.73
2023-01-20T00:58:11.266Z,19.23
2023-01-20T01:00:39.245Z,22.17
2023-01-20T01:03:07.178Z,20.97
2023-01-20T01:05:36.480Z,17.47
2023-01-20T01:08:04.543Z,19.13
2023-01-20T01:10:32.604Z,18.17
2023-01-20T01:13:00.819Z,17.00
2023-01-20T01:15:28.658Z,17.90
2023-01-20T01:17:57.616Z,18.27
2023-01-20T01:20:25.684Z,18.70
2023-01-20T01:22:54.854Z,20.60
2023-01-20T01:25:22.855Z,21.50
2023-01-20T01:27:50.640Z,18.07
2023-01-20T01:30:18.759Z,22.07
2023-01-20T01:32:46.647Z,19.53
2023-01-20T01:35:15.348Z,19.43
2023-01-20T01:37:43.224Z,20.33
2023-01-20T01:40:13.142Z,19.90
2023-01-20T01:42:42.845Z,19.50
2023-01-20T01:45:30.784Z,21.23
2023-01-20T01:48:06.680Z,18.43
2023-01-20T01:50:40.667Z,20.17
2023-01-20T01:53:09.785Z,19.20
2023-01-20T01:55:44.740Z,19.47
2023-01-20T01:58:16.512Z,18.87
2023-01-20T02:00:45.492Z,18.13
2023-01-20T02:03:14.112Z,22.00
2023-01-20T02:05:44.571Z,20.27
2023-01-20T02:08:12.221Z,18.20
2023-01-20T02:10:41.318Z,18.77
2023-01-20T02:13:09.824Z,16.77
2023-01-20T02:15:43.424Z,20.50
2023-01-20T02:18:26.019Z,18.57
2023-01-20T02:21:35.504Z,18.73
2023-01-20T02:24:37.302Z,17.53
2023-01-20T02:27:12.170Z,15.93
2023-01-20T02:30:14.143Z,19.50
2023-01-20T02:32:50.963Z,21.07
2023-01-20T02:35:26.517Z,19.47
2023-01-20T02:38:04.162Z,19.97
2023-01-20T02:40:40.550Z,18.80
2023-01-20T02:43:12.780Z,20.73
2023-01-20T02:45:46.402Z,20.43
2023-01-20T02:48:23.190Z,17.90
2023-01-20T02:51:00.165Z,19.77
2023-01-20T02:53:33.709Z,19.23
2023-01-20T02:56:01.601Z,18.37
2023-01-20T02:58:37.983Z,20.67
2023-01-20T03:01:12.726Z,18.02
2023-01-20T03:03:46.908Z,21.40
2023-01-20T03:06:19.478Z,20.73
2023-01-20T03:08:50.082Z,20.40
2023-01-20T03:11:18.265Z,22.80
2023-01-20T03:13:52.243Z,19.47
2023-01-20T03:16:23.293Z,20.00
2023-01-20T03:18:53.141Z,19.73
2023-01-20T03:21:21.794Z,21.67
2023-01-20T03:23:52.456Z,20.37
2023-01-20T03:26:22.692Z,17.63
2023-01-20T03:28:50.998Z,17.27
2023-01-20T03:31:22.467Z,20.70
2023-01-20T03:33:54.265Z,19.67
2023-01-20T03:36:24.527Z,17.50
2023-01-20T03:38:54.229Z,18.17
2023-01-20T03:41:31.482Z,18.37
2023-01-20T03:44:11.013Z,20.97
2023-01-20T03:46:45.895Z,19.90
2023-01-20T03:49:21.886Z,22.27
2023-01-20T03:52:01.345Z,19.27
2023-01-20T03:54:35.295Z,18.37
2023-01-20T03:57:08.295Z,18.70
2023-01-20T03:59:39.350Z,18.87
2023-01-20T04:02:09.364Z,18.33
2023-01-20T04:04:40.344Z,17.30
2023-01-20T04:07:12.387Z,19.37
2023-01-20T04:09:43.536Z,16.93
2023-01-20T04:12:11.879Z,16.60
2023-01-20T04:14:39.594Z,17.03
2023-01-20T04:17:08.034Z,18.90
2023-01-20T04:19:36.001Z,16.70
2023-01-20T04:22:09.421Z,15.37
2023-01-20T04:24:43.128Z,18.87
2023-01-20T04:27:10.807Z,16.93
2023-01-20T04:29:38.527Z,16.93
2023-01-20T04:32:06.694Z,18.53
2023-01-20T04:34:34.648Z,17.97
2023-01-20T04:37:02.391Z,16.43
2023-01-20T04:39:31.508Z,15.20
2023-01-20T04:41:59.443Z,20.03
2023-01-20T04:44:27.147Z,18.73
2023-01-20T04:46:57.655Z,14.83
2023-01-20T04:49:25.911Z,16.30
2023-01-20T04:51:53.679Z,15.87
2023-01-20T04:54:21.858Z,15.33
2023-01-20T04:56:51.220Z,17.23
2023-01-20T04:59:18.922Z,13.93
2023-01-20T05:01:46.716Z,16.00
2023-01-20T05:04:14.386Z,17.17
2023-01-20T05:06:42.771Z,19.63
2023-01-20T05:09:15.177Z,16.80
2023-01-20T05:11:43.053Z,14.30
2023-01-20T05:14:13.500Z,16.97
2023-01-20T05:16:41.192Z,17.03
2023-01-20T05:19:09.376Z,16.40
2023-01-20T05:21:37.122Z,14.37
2023-01-20T05:24:05.635Z,17.33
2023-01-20T05:26:33.812Z,19.40
2023-01-20T05:29:02.857Z,17.63
2023-01-20T05:31:32.185Z,16.10
2023-01-20T05:34:00.216Z,15.67
2023-01-20T05:36:28.346Z,14.77
2023-01-20T05:38:56.974Z,16.67
2023-01-20T05:41:25.237Z,18.37
2023-01-20T05:43:54.158Z,19.83
2023-01-20T05:46:22.105Z,18.17
2023-01-20T05:48:51.781Z,18.07
2023-01-20T05:51:19.513Z,20.47
2023-01-20T05:53:47.311Z,18.20
2023-01-20T05:56:15.947Z,24.43
2023-01-20T05:58:44.068Z,25.10
2023-01-20T06:01:14.095Z,21.50
2023-01-20T06:03:42.164Z,22.03
2023-01-20T06:06:15.641Z,20.37
2023-01-20T06:08:43.902Z,21.27
2023-01-20T06:11:11.840Z,19.20
2023-01-20T06:13:40.069Z,16.50
2023-01-20T06:16:09.243Z,15.80
2023-01-20T06:18:37.100Z,20.40
2023-01-20T06:21:05.053Z,18.37
2023-01-20T06:23:34.446Z,20.57
2023-01-20T06:26:03.445Z,20.50
2023-01-20T06:28:32.985Z,17.07
2023-01-20T06:31:02.456Z,17.77
2023-01-20T06:33:30.583Z,18.87
2023-01-20T06:35:58.427Z,15.70
2023-01-20T06:38:28.301Z,18.77
2023-01-20T06:40:59.753Z,15.77
2023-01-20T06:43:30.453Z,17.40
2023-01-20T06:46:01.494Z,21.83
2023-01-20T06:48:30.770Z,19.40
2023-01-20T06:51:01.819Z,17.00
2023-01-20T06:53:29.892Z,18.03
2023-01-20T06:56:00.303Z,17.77
2023-01-20T06:58:30.707Z,18.47
2023-01-20T07:01:00.175Z,20.37
2023-01-20T07:03:27.963Z,35.63
2023-01-20T07:05:59.540Z,20.50
2023-01-20T07:08:27.580Z,17.60
2023-01-20T07:10:55.365Z,18.20
2023-01-20T07:13:24.828Z,21.73
2023-01-20T07:15:53.949Z,21.93
2023-01-20T07:18:22.110Z,19.07
2023-01-20T07:20:54.711Z,21.77
2023-01-20T07:23:22.398Z,17.77
2023-01-20T07:25:58.248Z,17.73
2023-01-20T07:28:27.716Z,17.60
2023-01-20T07:30:56.183Z,18.37
2023-01-20T07:33:23.963Z,19.03
2023-01-20T07:35:55.105Z,19.43
2023-01-20T07:38:22.930Z,19.83
2023-01-20T07:40:50.686Z,18.53
2023-01-20T07:43:19.031Z,18.93
2023-01-20T07:45:48.170Z,20.73
2023-01-20T07:48:15.983Z,27.83
2023-01-20T07:50:44.006Z,24.67
2023-01-20T07:53:12.171Z,18.83
2023-01-20T07:55:40.286Z,17.00
2023-01-20T07:58:08.490Z,23.27
2023-01-20T08:00:36.323Z,20.50
2023-01-20T08:03:05.814Z,21.40
2023-01-20T08:05:34.499Z,17.03
2023-01-20T08:08:02.207Z,19.67
2023-01-20T08:10:30.741Z,20.90
2023-01-20T08:12:59.352Z,20.93
2023-01-20T08:15:27.170Z,22.60
2023-01-20T08:17:55.003Z,22.73
2023-01-20T08:20:24.358Z,20.73
2023-01-20T08:22:52.111Z,19.40
2023-01-20T08:25:20.044Z,24.50
2023-01-20T08:27:49.522Z,30.33
2023-01-20T08:30:17.544Z,24.60
2023-01-20T08:32:45.266Z,22.77
2023-01-20T08:35:13.207Z,31.27
2023-01-20T08:37:42.533Z,32.67
2023-01-20T08:40:11.655Z,33.73
2023-01-20T08:42:40.106Z,32.30
2023-01-20T08:45:09.925Z,28.43
2023-01-20T08:47:38.128Z,23.20
2023-01-20T08:50:08.348Z,21.67
2023-01-20T08:52:37.010Z,24.63
2023-01-20T08:55:07.146Z,24.70
2023-01-20T08:57:35.837Z,19.80
2023-01-20T09:00:06.590Z,26.83
2023-01-20T09:02:34.924Z,25.37
2023-01-20T09:05:04.027Z,24.57
2023-01-20T09:07:31.820Z,22.03
2023-01-20T09:09:59.669Z,24.57
2023-01-20T09:12:28.868Z,24.33
2023-01-20T09:14:56.581Z,20.53
2023-01-20T09:17:24.494Z,20.20
2023-01-20T09:19:52.778Z,27.23
2023-01-20T09:22:20.657Z,19.30
2023-01-20T09:24:48.407Z,21.70
2023-01-20T09:27:16.390Z,22.27
2023-01-20T09:29:45.576Z,24.13
2023-01-20T09:32:15.482Z,21.20
2023-01-20T09:34:43.206Z,23.53
2023-01-20T09:37:28.631Z,27.57
2023-01-20T09:40:14.121Z,21.47
2023-01-20T09:43:18.783Z,20.97
2023-01-20T09:45:53.974Z,21.87
2023-01-20T09:48:53.278Z,24.80
2023-01-20T09:51:49.918Z,26.97
2023-01-20T09:54:25.180Z,27.17
2023-01-20T09:56:55.737Z,25.23
2023-01-20T09:59:27.968Z,24.57
2023-01-20T10:02:00.264Z,26.13
2023-01-20T10:04:33.915Z,26.77
2023-01-20T10:07:09.796Z,22.87
2023-01-20T10:09:43.567Z,20.63
2023-01-20T10:12:16.402Z,25.03
2023-01-20T10:14:48.329Z,19.93
2023-01-20T10:17:24.536Z,21.87
2023-01-20T10:19:58.835Z,25.77
2023-01-20T10:22:33.287Z,23.17
2023-01-20T10:25:06.795Z,28.77
2023-01-20T10:27:40.904Z,23.77
2023-01-20T10:30:11.995Z,30.40
2023-01-20T10:32:48.387Z,25.77
2023-01-20T10:35:20.668Z,22.43
2023-01-20T10:37:48.663Z,22.40
2023-01-20T10:40:26.430Z,21.40
2023-01-20T10:42:58.379Z,22.23
2023-01-20T10:45:34.865Z,20.47
2023-01-20T10:48:16.881Z,20.80
2023-01-20T10:50:51.804Z,23.47
2023-01-20T10:53:44.435Z,16.73
2023-01-20T10:56:31.701Z,17.83
2023-01-20T10:59:05.414Z,18.90
2023-01-20T11:01:33.246Z,18.53
2023-01-20T11:04:02.436Z,22.00
2023-01-20T11:06:30.126Z,19.13
2023-01-20T11:08:59.342Z,18.90
2023-01-20T11:11:29.441Z,17.87
2023-01-20T11:13:59.484Z,19.17
2023-01-20T11:16:29.621Z,17.17
2023-01-20T11:19:00.512Z,19.83
2023-01-20T11:21:32.070Z,17.53
2023-01-20T11:24:01.009Z,16.67
2023-01-20T11:26:31.520Z,18.67
2023-01-20T11:29:00.999Z,18.13
2023-01-20T11:31:41.476Z,17.33
2023-01-20T11:34:25.442Z,16.70
2023-01-20T11:37:18.491Z,13.43
2023-01-20T11:39:58.944Z,16.37
2023-01-20T11:42:28.771Z,16.93
2023-01-20T11:45:05.697Z,15.17
2023-01-20T11:47:46.081Z,16.20
2023-01-20T11:50:28.047Z,17.90
2023-01-20T11:53:13.338Z,14.93
2023-01-20T11:55:48.726Z,17.47
2023-01-20T11:58:20.246Z,17.00
2023-01-20T12:00:48.564Z,16.00
2023-01-20T12:03:58.346Z,16.97
2023-01-20T12:06:28.923Z,12.53
2023-01-20T12:09:02.477Z,17.07
2023-01-20T12:11:35.053Z,17.77
2023-01-20T12:14:23.013Z,11.90
2023-01-20T12:17:01.554Z,16.70
2023-01-20T12:19:38.246Z,16.70
2023-01-20T12:22:14.072Z,13.20
2023-01-20T12:25:10.219Z,12.97
2023-01-20T12:27:44.901Z,13.80
2023-01-20T12:30:35.701Z,14.87
2023-01-20T12:33:03.879Z,14.77
2023-01-20T12:35:39.095Z,17.67
2023-01-20T12:38:09.559Z,16.80
2023-01-20T12:40:46.261Z,17.10
2023-01-20T12:43:39.273Z,13.17
2023-01-20T12:46:31.451Z,11.10
2023-01-20T12:49:14.527Z,16.30
2023-01-20T12:51:54.715Z,8.88
2023-01-20T12:54:52.617Z,11.50
2023-01-20T12:57:40.217Z,8.57
2023-01-20T13:00:24.191Z,10.73
2023-01-20T13:03:24.892Z,9.50
2023-01-20T13:06:08.184Z,8.70
2023-01-20T13:08:46.527Z,8.00
2023-01-20T13:11:21.073Z,8.50
2023-01-20T13:14:07.959Z,12.30
2023-01-20T13:16:44.051Z,11.03
2023-01-20T13:19:15.204Z,10.33
2023-01-20T13:21:43.517Z,10.03
2023-01-20T13:24:18.944Z,10.80
2023-01-20T13:26:49.217Z,5.87
2023-01-20T13:29:41.191Z,7.88
2023-01-20T13:32:27.800Z,8.38
2023-01-20T13:34:56.162Z,7.50
2023-01-20T13:37:30.158Z,8.25
2023-01-20T13:39:59.790Z,14.27
2023-01-20T13:42:48.866Z,9.13
2023-01-20T13:45:23.647Z,9.60
2023-01-20T13:48:02.474Z,8.80
2023-01-20T13:50:33.083Z,8.50
2023-01-20T13:53:14.419Z,11.68
2023-01-20T13:55:56.570Z,7.85
2023-01-20T13:58:25.668Z,9.40
2023-01-20T14:00:56.612Z,10.20
2023-01-20T14:03:28.827Z,7.03
2023-01-20T14:05:59.088Z,8.70
2023-01-20T14:08:29.141Z,8.93
2023-01-20T14:11:14.315Z,7.87
2023-01-20T14:13:43.661Z,13.03
2023-01-20T14:16:22.310Z,9.60
2023-01-20T14:18:51.154Z,9.07
2023-01-20T14:21:21.561Z,7.97
2023-01-20T14:23:50.885Z,11.93
2023-01-20T14:26:22.877Z,10.43
2023-01-20T14:28:52.611Z,10.10
2023-01-20T14:31:35.184Z,10.10
2023-01-20T14:34:19.836Z,9.70
2023-01-20T14:36:48.173Z,7.33
2023-01-20T14:39:21.568Z,9.20
2023-01-20T14:41:51.543Z,10.02
2023-01-20T14:44:22.179Z,10.40
2023-01-20T14:46:54.661Z,14.23
2023-01-20T14:49:26.659Z,12.73
2023-01-20T14:51:55.133Z,12.13
2023-01-20T14:54:39.987Z,9.03
2023-01-20T14:57:21.789Z,7.60
2023-01-20T15:00:02.830Z,6.70
2023-01-20T15:02:34.778Z,8.48
2023-01-20T15:05:03.328Z,8.07
2023-01-20T15:07:31.167Z,8.73
2023-01-20T15:10:03.122Z,9.90
2023-01-20T15:12:42.399Z,9.32
2023-01-20T15:15:24.324Z,7.85
2023-01-20T15:18:16.440Z,9.47
2023-01-20T15:20:46.685Z,7.83
2023-01-20T15:23:19.667Z,5.37
2023-01-20T15:25:47.991Z,7.10
2023-01-20T15:28:24.824Z,6.83
2023-01-20T15:30:54.450Z,7.63
2023-01-20T15:33:24.127Z,10.07
2023-01-20T15:35:54.165Z,8.30
2023-01-20T15:38:22.408Z,14.13
2023-01-20T15:40:50.378Z,7.27
2023-01-20T15:43:19.144Z,8.03
2023-01-20T15:45:47.512Z,7.80
2023-01-20T15:48:17.269Z,8.87
2023-01-20T15:50:46.791Z,7.27
2023-01-20T15:53:15.580Z,11.97
2023-01-20T15:55:49.012Z,10.83
2023-01-20T15:58:26.035Z,9.43
2023-01-20T16:00:55.132Z,8.97
2023-01-20T16:03:23.475Z,8.37
2023-01-20T16:05:54.315Z,11.10
2023-01-20T16:08:24.747Z,13.47
2023-01-20T16:10:52.480Z,12.03
2023-01-20T16:13:20.214Z,12.13
2023-01-20T16:15:48.023Z,14.07
2023-01-20T16:18:17.767Z,15.93
2023-01-20T16:20:47.377Z,17.80
2023-01-20T16:23:17.081Z,17.77
2023-01-20T16:25:45.127Z,18.30
2023-01-20T16:28:15.254Z,12.32
2023-01-20T16:30:43.441Z,15.73
2023-01-20T16:33:19.734Z,15.45
2023-01-20T16:35:47.578Z,14.65
2023-01-20T16:38:19.474Z,12.13
2023-01-20T16:40:50.470Z,8.03
2023-01-20T16:43:18.803Z,7.70
2023-01-20T16:45:52.560Z,7.75
2023-01-20T16:48:20.504Z,8.48
2023-01-20T16:50:48.529Z,8.77
2023-01-20T16:53:18.929Z,7.20
2023-01-20T16:55:47.973Z,6.30
2023-01-20T16:58:16.717Z,7.87
2023-01-20T17:00:44.537Z,6.97
2023-01-20T17:03:12.309Z,4.90
2023-01-20T17:05:40.053Z,4.73
2023-01-20T17:08:08.046Z,3.70
2023-01-20T17:10:37.139Z,3.73
2023-01-20T17:13:04.882Z,5.07
2023-01-20T17:15:32.834Z,2.50
2023-01-20T17:18:00.647Z,3.10
2023-01-20T17:20:31.037Z,3.17
2023-01-20T17:22:58.861Z,3.77
2023-01-20T17:25:27.460Z,5.87
2023-01-20T17:27:56.590Z,5.20
2023-01-20T17:30:26.296Z,6.57
2023-01-20T17:32:54.438Z,7.73
2023-01-20T17:35:22.262Z,6.90
2023-01-20T17:37:50.140Z,8.87
2023-01-20T17:40:18.670Z,6.80
2023-01-20T17:42:49.376Z,6.70
2023-01-20T17:45:18.445Z,5.83
2023-01-20T17:47:46.210Z,5.50
2023-01-20T17:50:14.353Z,6.17
2023-01-20T17:52:42.920Z,9.00
2023-01-20T17:55:11.652Z,8.20
2023-01-20T17:57:39.433Z,10.63
2023-01-20T18:00:09.680Z,7.97
2023-01-20T18:02:39.206Z,9.33
2023-01-20T18:05:09.092Z,8.30
2023-01-20T18:07:38.070Z,9.50
2023-01-20T18:10:07.056Z,8.80
2023-01-20T18:12:35.527Z,10.33
2023-01-20T18:15:04.120Z,9.07
2023-01-20T18:17:34.428Z,11.53
2023-01-20T18:20:03.632Z,11.73
2023-01-20T18:22:31.347Z,12.40
2023-01-20T18:24:59.161Z,13.47
2023-01-20T18:27:27.358Z,11.77
2023-01-20T18:29:55.182Z,9.67
2023-01-20T18:32:23.287Z,11.43
2023-01-20T18:34:51.483Z,12.30
2023-01-20T18:37:20.687Z,10.23
2023-01-20T18:39:48.718Z,11.13
2023-01-20T18:42:16.420Z,12.80
2023-01-20T18:44:44.566Z,12.03
2023-01-20T18:47:12.686Z,14.27
2023-01-20T18:49:40.502Z,15.10
2023-01-20T18:52:09.203Z,12.13
2023-01-20T18:54:39.118Z,13.03
2023-01-20T18:57:09.000Z,13.43
2023-01-20T18:59:37.218Z,13.57
2023-01-20T19:02:08.709Z,14.97
2023-01-20T19:04:37.340Z,14.27
2023-01-20T19:07:06.640Z,16.97
2023-01-20T19:09:35.120Z,19.30
2023-01-20T19:12:04.966Z,17.40
2023-01-20T19:14:33.375Z,24.67
2023-01-20T19:17:01.561Z,22.40
2023-01-20T19:19:29.349Z,23.80
2023-01-20T19:21:57.771Z,25.80
2023-01-20T19:24:29.071Z,23.53
2023-01-20T19:26:58.155Z,22.73
2023-01-20T19:29:29.349Z,25.60
2023-01-20T19:31:57.732Z,22.20
2023-01-20T19:34:26.494Z,23.73
2023-01-20T19:36:54.283Z,21.17
2023-01-20T19:39:22.191Z,26.67
2023-01-20T19:41:51.059Z,21.47
2023-01-20T19:44:18.816Z,23.77
2023-01-20T19:46:51.015Z,21.67
2023-01-20T19:49:19.020Z,23.47
2023-01-20T19:51:47.288Z,22.13
2023-01-20T19:54:15.294Z,23.73
2023-01-20T19:56:43.044Z,24.77
2023-01-20T19:59:13.194Z,22.23
2023-01-20T20:01:41.174Z,23.80
2023-01-20T20:04:13.381Z,22.77
2023-01-20T20:06:47.768Z,21.67
2023-01-20T20:09:17.685Z,25.50
2023-01-20T20:11:46.184Z,22.40
2023-01-20T20:14:16.216Z,24.63
2023-01-20T20:16:44.178Z,23.30
2023-01-20T20:19:15.959Z,28.50
2023-01-20T20:21:44.064Z,26.10
2023-01-20T20:24:13.970Z,28.67
2023-01-20T20:26:44.494Z,26.57
2023-01-20T20:29:13.980Z,31.23
2023-01-20T20:31:42.389Z,29.43
2023-01-20T20:34:14.901Z,33.07
2023-01-20T20:36:43.100Z,32.53
2023-01-20T20:39:15.469Z,32.13
2023-01-20T20:41:43.793Z,33.33
2023-01-20T20:44:13.304Z,29.20
2023-01-20T20:46:41.656Z,30.67
2023-01-20T20:49:15.519Z,30.67
2023-01-20T20:51:43.832Z,31.77
2023-01-20T20:54:16.745Z,31.13
2023-01-20T20:56:44.962Z,29.10
2023-01-20T20:59:14.135Z,29.30
2023-01-20T21:01:42.905Z,28.73
2023-01-20T21:04:12.558Z,27.93
2023-01-20T21:06:44.396Z,26.87
2023-01-20T21:09:13.215Z,27.93
2023-01-20T21:11:43.125Z,24.30
2023-01-20T21:14:12.214Z,27.03
2023-01-20T21:16:40.622Z,20.77
2023-01-20T21:19:09.193Z,21.93
2023-01-20T21:21:37.721Z,22.27
2023-01-20T21:24:10.555Z,20.27
2023-01-20T21:26:38.929Z,20.40
2023-01-20T21:29:07.410Z,21.90
2023-01-20T21:31:35.681Z,19.53
2023-01-20T21:34:03.798Z,20.93
2023-01-20T21:36:33.923Z,21.93
2023-01-20T21:39:02.055Z,22.80
2023-01-20T21:41:31.340Z,25.00
2023-01-20T21:44:16.992Z,26.77
2023-01-20T21:46:44.823Z,26.70
2023-01-20T21:49:30.161Z,27.03
2023-01-20T21:52:16.317Z,28.20
2023-01-20T21:54:45.270Z,28.43
2023-01-20T21:57:15.408Z,29.70
2023-01-20T21:59:45.603Z,26.80
2023-01-20T22:02:14.496Z,30.83
2023-01-20T22:04:42.495Z,29.40
2023-01-20T22:07:11.512Z,28.43
2023-01-20T22:09:39.530Z,24.13
2023-01-20T22:12:08.572Z,26.83
2023-01-20T22:14:37.861Z,24.50
2023-01-20T22:17:05.992Z,23.50
2023-01-20T22:19:33.792Z,21.67
2023-01-20T22:22:02.351Z,22.43
2023-01-20T22:24:30.546Z,20.87
2023-01-20T22:26:58.854Z,24.90
2023-01-20T22:29:26.961Z,20.97
2023-01-20T22:31:57.580Z,21.93
2023-01-20T22:34:25.855Z,21.83
2023-01-20T22:36:56.088Z,22.77
2023-01-20T22:39:23.990Z,19.70
2023-01-20T22:41:51.695Z,23.57
2023-01-20T22:44:19.492Z,21.50
2023-01-20T22:46:47.810Z,22.87
2023-01-20T22:49:17.017Z,20.60
2023-01-20T22:51:45.078Z,20.80
2023-01-20T22:54:12.925Z,19.77
2023-01-20T22:56:40.665Z,20.00
2023-01-20T22:59:09.545Z,20.73
2023-01-20T23:01:37.358Z,21.63
2023-01-20T23:04:07.153Z,18.67
2023-01-20T23:06:38.114Z,19.27
2023-01-20T23:09:09.563Z,21.73
2023-01-20T23:11:39.975Z,20.10
2023-01-20T23:14:10.829Z,22.53
2023-01-20T23:16:38.839Z,21.17
2023-01-20T23:19:06.914Z,19.53
2023-01-20T23:21:35.429Z,21.43
2023-01-20T23:24:05.047Z,20.93
2023-01-20T23:26:34.163Z,23.17
2023-01-20T23:29:01.964Z,18.20
2023-01-20T23:31:33.159Z,19.97
2023-01-20T23:34:01.087Z,21.63
2023-01-20T23:36:29.384Z,19.13
2023-01-20T23:38:57.726Z,20.93
2023-01-20T23:41:28.212Z,19.30
2023-01-20T23:43:56.042Z,17.93
2023-01-20T23:46:23.733Z,19.53
2023-01-20T23:48:51.608Z,19.33
2023-01-20T23:51:19.444Z,19.63
2023-01-20T23:53:47.530Z,20.00
2023-01-20T23:56:18.380Z,17.73
2023-01-20T23:58:51.123Z,17.40
